Fort Bliss, Texas
Current Conditions -  °F | °C
As of 9:58 AM on Friday 31 Oct 2014 (Local Time) from KBIF Reporting Station
Few Clouds Few Clouds  
Wind Chill: 64°   Ceiling: Unl
Heat Index: 64°   Visibility: 9mi
Dew Point: 35°   Wind: 16mph
Humidity: 34%   Direction: 110°ESE
Pressure: 30.35"   Gusts: 23mph
Location:  31.8335°N, 106.423°W
Report Text: KBIF 311558Z 11014G20KT 9SM FEW250 18/02 A3035 RMK AO2A SLP232 T01750015 $
Loading
Personal Weather Stations






























Interactive Weather Map New forecast layout! Learn more

10-Day Weather Forecast

Advertisements
Track Severe Weather on mobile